sensor_id;sensor_type;location;lat;lon;timestamp;P1;durP1;ratioP1;P2;durP2;ratioP2
45620;SDS011;31345;51.522;10.702;2023-03-09T00:01:55;17.00;;;10.00;;
45620;SDS011;31345;51.522;10.702;2023-03-09T00:04:28;19.67;;;10.77;;
45620;SDS011;31345;51.522;10.702;2023-03-09T00:07:02;17.70;;;9.90;;
45620;SDS011;31345;51.522;10.702;2023-03-09T00:09:30;18.20;;;10.20;;
45620;SDS011;31345;51.522;10.702;2023-03-09T00:12:03;19.27;;;9.67;;
45620;SDS011;31345;51.522;10.702;2023-03-09T00:14:35;15.17;;;8.80;;
45620;SDS011;31345;51.522;10.702;2023-03-09T00:17:03;15.90;;;9.13;;
45620;SDS011;31345;51.522;10.702;2023-03-09T00:19:31;15.63;;;8.90;;
45620;SDS011;31345;51.522;10.702;2023-03-09T00:22:05;17.20;;;9.93;;
45620;SDS011;31345;51.522;10.702;2023-03-09T00:24:32;15.93;;;8.93;;
45620;SDS011;31345;51.522;10.702;2023-03-09T00:27:00;16.90;;;10.20;;
45620;SDS011;31345;51.522;10.702;2023-03-09T00:29:34;15.37;;;8.67;;
45620;SDS011;31345;51.522;10.702;2023-03-09T00:32:08;16.73;;;9.43;;
45620;SDS011;31345;51.522;10.702;2023-03-09T00:34:40;17.53;;;9.43;;
45620;SDS011;31345;51.522;10.702;2023-03-09T00:37:15;15.93;;;8.90;;
45620;SDS011;31345;51.522;10.702;2023-03-09T00:39:47;15.73;;;9.27;;
45620;SDS011;31345;51.522;10.702;2023-03-09T00:42:15;17.27;;;10.40;;
45620;SDS011;31345;51.522;10.702;2023-03-09T00:44:42;18.77;;;10.73;;
45620;SDS011;31345;51.522;10.702;2023-03-09T00:47:17;18.00;;;10.03;;
45620;SDS011;31345;51.522;10.702;2023-03-09T00:49:45;16.43;;;9.53;;
45620;SDS011;31345;51.522;10.702;2023-03-09T00:52:15;16.57;;;9.33;;
45620;SDS011;31345;51.522;10.702;2023-03-09T00:54:43;16.50;;;9.70;;
45620;SDS011;31345;51.522;10.702;2023-03-09T00:57:17;16.50;;;9.40;;
45620;SDS011;31345;51.522;10.702;2023-03-09T00:59:50;16.53;;;9.33;;
45620;SDS011;31345;51.522;10.702;2023-03-09T01:02:23;18.63;;;10.70;;
45620;SDS011;31345;51.522;10.702;2023-03-09T01:04:56;15.57;;;9.87;;
45620;SDS011;31345;51.522;10.702;2023-03-09T01:07:31;17.00;;;9.13;;
45620;SDS011;31345;51.522;10.702;2023-03-09T01:10:05;14.90;;;8.70;;
45620;SDS011;31345;51.522;10.702;2023-03-09T01:12:35;15.60;;;9.00;;
45620;SDS011;31345;51.522;10.702;2023-03-09T01:15:08;14.73;;;8.73;;
45620;SDS011;31345;51.522;10.702;2023-03-09T01:17:41;14.53;;;8.50;;
45620;SDS011;31345;51.522;10.702;2023-03-09T01:20:14;14.13;;;8.00;;
45620;SDS011;31345;51.522;10.702;2023-03-09T01:22:48;12.67;;;8.07;;
45620;SDS011;31345;51.522;10.702;2023-03-09T01:25:20;13.63;;;8.20;;
45620;SDS011;31345;51.522;10.702;2023-03-09T01:27:48;13.20;;;7.97;;
45620;SDS011;31345;51.522;10.702;2023-03-09T01:30:21;14.53;;;8.30;;
45620;SDS011;31345;51.522;10.702;2023-03-09T01:32:49;13.97;;;8.00;;
45620;SDS011;31345;51.522;10.702;2023-03-09T01:35:21;11.93;;;7.47;;
45620;SDS011;31345;51.522;10.702;2023-03-09T01:37:55;12.50;;;7.47;;
45620;SDS011;31345;51.522;10.702;2023-03-09T01:40:28;14.23;;;8.77;;
45620;SDS011;31345;51.522;10.702;2023-03-09T01:43:01;13.90;;;8.07;;
45620;SDS011;31345;51.522;10.702;2023-03-09T01:48:59;12.60;;;6.87;;
45620;SDS011;31345;51.522;10.702;2023-03-09T01:51:38;12.93;;;7.40;;
45620;SDS011;31345;51.522;10.702;2023-03-09T01:54:13;12.27;;;7.23;;
45620;SDS011;31345;51.522;10.702;2023-03-09T01:56:46;11.17;;;6.97;;
45620;SDS011;31345;51.522;10.702;2023-03-09T01:59:26;11.50;;;7.00;;
45620;SDS011;31345;51.522;10.702;2023-03-09T02:02:01;11.27;;;7.00;;
45620;SDS011;31345;51.522;10.702;2023-03-09T02:04:32;12.57;;;7.07;;
45620;SDS011;31345;51.522;10.702;2023-03-09T02:07:08;13.33;;;7.90;;
45620;SDS011;31345;51.522;10.702;2023-03-09T02:09:40;13.67;;;8.07;;
45620;SDS011;31345;51.522;10.702;2023-03-09T02:12:16;13.03;;;7.83;;
45620;SDS011;31345;51.522;10.702;2023-03-09T02:14:51;12.97;;;7.23;;
45620;SDS011;31345;51.522;10.702;2023-03-09T02:17:24;12.17;;;7.53;;
45620;SDS011;31345;51.522;10.702;2023-03-09T02:20:05;13.67;;;7.73;;
45620;SDS011;31345;51.522;10.702;2023-03-09T02:22:46;13.27;;;7.53;;
45620;SDS011;31345;51.522;10.702;2023-03-09T02:25:23;11.17;;;6.87;;
45620;SDS011;31345;51.522;10.702;2023-03-09T02:28:02;11.13;;;6.97;;
45620;SDS011;31345;51.522;10.702;2023-03-09T02:30:38;10.73;;;6.90;;
45620;SDS011;31345;51.522;10.702;2023-03-09T02:33:21;12.53;;;7.20;;
45620;SDS011;31345;51.522;10.702;2023-03-09T02:35:57;12.40;;;6.83;;
45620;SDS011;31345;51.522;10.702;2023-03-09T02:38:32;12.07;;;7.23;;
45620;SDS011;31345;51.522;10.702;2023-03-09T02:41:06;12.83;;;7.53;;
45620;SDS011;31345;51.522;10.702;2023-03-09T02:43:43;12.43;;;7.30;;
45620;SDS011;31345;51.522;10.702;2023-03-09T02:46:20;13.30;;;7.73;;
45620;SDS011;31345;51.522;10.702;2023-03-09T02:48:55;12.00;;;6.60;;
45620;SDS011;31345;51.522;10.702;2023-03-09T02:51:27;10.63;;;6.10;;
45620;SDS011;31345;51.522;10.702;2023-03-09T02:53:55;11.77;;;7.30;;
45620;SDS011;31345;51.522;10.702;2023-03-09T02:56:22;12.63;;;7.13;;
45620;SDS011;31345;51.522;10.702;2023-03-09T02:58:57;10.70;;;6.30;;
45620;SDS011;31345;51.522;10.702;2023-03-09T03:01:25;10.17;;;5.80;;
45620;SDS011;31345;51.522;10.702;2023-03-09T03:03:57;9.80;;;5.80;;
45620;SDS011;31345;51.522;10.702;2023-03-09T03:06:25;13.03;;;6.83;;
45620;SDS011;31345;51.522;10.702;2023-03-09T03:08:57;11.17;;;6.77;;
45620;SDS011;31345;51.522;10.702;2023-03-09T03:11:30;10.73;;;6.33;;
45620;SDS011;31345;51.522;10.702;2023-03-09T03:14:07;10.33;;;5.87;;
45620;SDS011;31345;51.522;10.702;2023-03-09T03:16:39;11.23;;;6.47;;
45620;SDS011;31345;51.522;10.702;2023-03-09T03:19:12;9.60;;;6.33;;
45620;SDS011;31345;51.522;10.702;2023-03-09T03:21:45;9.07;;;6.13;;
45620;SDS011;31345;51.522;10.702;2023-03-09T03:24:13;10.97;;;6.30;;
45620;SDS011;31345;51.522;10.702;2023-03-09T03:26:42;10.77;;;6.20;;
45620;SDS011;31345;51.522;10.702;2023-03-09T03:29:14;8.98;;;5.75;;
45620;SDS011;31345;51.522;10.702;2023-03-09T03:31:47;10.60;;;6.03;;
45620;SDS011;31345;51.522;10.702;2023-03-09T03:34:19;8.80;;;5.60;;
45620;SDS011;31345;51.522;10.702;2023-03-09T03:36:53;9.93;;;5.50;;
45620;SDS011;31345;51.522;10.702;2023-03-09T03:39:27;9.30;;;5.80;;
45620;SDS011;31345;51.522;10.702;2023-03-09T03:42:04;10.23;;;6.03;;
45620;SDS011;31345;51.522;10.702;2023-03-09T03:44:33;7.30;;;4.90;;
45620;SDS011;31345;51.522;10.702;2023-03-09T03:47:01;9.83;;;5.87;;
45620;SDS011;31345;51.522;10.702;2023-03-09T03:49:35;11.40;;;6.87;;
45620;SDS011;31345;51.522;10.702;2023-03-09T03:52:05;10.40;;;6.15;;
45620;SDS011;31345;51.522;10.702;2023-03-09T03:54:38;9.70;;;5.77;;
45620;SDS011;31345;51.522;10.702;2023-03-09T03:57:11;8.87;;;5.47;;
45620;SDS011;31345;51.522;10.702;2023-03-09T03:59:40;10.20;;;5.97;;
45620;SDS011;31345;51.522;10.702;2023-03-09T04:02:12;8.50;;;5.10;;
45620;SDS011;31345;51.522;10.702;2023-03-09T04:04:40;9.87;;;5.37;;
45620;SDS011;31345;51.522;10.702;2023-03-09T04:07:14;8.90;;;5.33;;
45620;SDS011;31345;51.522;10.702;2023-03-09T04:09:41;8.67;;;5.03;;
45620;SDS011;31345;51.522;10.702;2023-03-09T04:12:09;9.27;;;5.33;;
45620;SDS011;31345;51.522;10.702;2023-03-09T04:14:46;8.90;;;5.50;;
45620;SDS011;31345;51.522;10.702;2023-03-09T04:17:19;8.77;;;5.37;;
45620;SDS011;31345;51.522;10.702;2023-03-09T04:19:46;8.43;;;5.20;;
45620;SDS011;31345;51.522;10.702;2023-03-09T04:22:14;8.27;;;5.20;;
45620;SDS011;31345;51.522;10.702;2023-03-09T04:24:47;9.67;;;5.47;;
45620;SDS011;31345;51.522;10.702;2023-03-09T04:27:20;8.67;;;5.00;;
45620;SDS011;31345;51.522;10.702;2023-03-09T04:29:57;9.70;;;5.50;;
45620;SDS011;31345;51.522;10.702;2023-03-09T04:32:35;8.57;;;4.77;;
45620;SDS011;31345;51.522;10.702;2023-03-09T04:35:10;9.13;;;5.73;;
45620;SDS011;31345;51.522;10.702;2023-03-09T04:37:47;8.97;;;5.70;;
45620;SDS011;31345;51.522;10.702;2023-03-09T04:40:22;9.10;;;5.27;;
45620;SDS011;31345;51.522;10.702;2023-03-09T04:42:58;8.90;;;5.03;;
45620;SDS011;31345;51.522;10.702;2023-03-09T04:45:32;9.53;;;5.63;;
45620;SDS011;31345;51.522;10.702;2023-03-09T04:48:05;9.20;;;5.70;;
45620;SDS011;31345;51.522;10.702;2023-03-09T04:50:39;9.10;;;5.37;;
45620;SDS011;31345;51.522;10.702;2023-03-09T04:53:11;10.20;;;5.83;;
45620;SDS011;31345;51.522;10.702;2023-03-09T04:55:44;9.93;;;5.20;;
45620;SDS011;31345;51.522;10.702;2023-03-09T04:58:19;10.60;;;5.70;;
45620;SDS011;31345;51.522;10.702;2023-03-09T05:00:47;11.00;;;6.10;;
45620;SDS011;31345;51.522;10.702;2023-03-09T05:03:24;9.47;;;5.70;;
45620;SDS011;31345;51.522;10.702;2023-03-09T05:05:59;8.13;;;5.17;;
45620;SDS011;31345;51.522;10.702;2023-03-09T05:08:37;8.40;;;4.90;;
45620;SDS011;31345;51.522;10.702;2023-03-09T05:11:11;7.87;;;5.10;;
45620;SDS011;31345;51.522;10.702;2023-03-09T05:13:46;9.47;;;5.00;;
45620;SDS011;31345;51.522;10.702;2023-03-09T05:16:23;9.17;;;5.70;;
45620;SDS011;31345;51.522;10.702;2023-03-09T05:18:55;8.27;;;5.10;;
45620;SDS011;31345;51.522;10.702;2023-03-09T05:21:34;7.53;;;4.60;;
45620;SDS011;31345;51.522;10.702;2023-03-09T05:24:10;6.87;;;3.97;;
45620;SDS011;31345;51.522;10.702;2023-03-09T05:26:43;5.40;;;3.50;;
45620;SDS011;31345;51.522;10.702;2023-03-09T05:29:18;4.93;;;2.87;;
45620;SDS011;31345;51.522;10.702;2023-03-09T05:31:52;5.33;;;3.27;;
45620;SDS011;31345;51.522;10.702;2023-03-09T05:34:26;5.63;;;3.60;;
45620;SDS011;31345;51.522;10.702;2023-03-09T05:37:01;8.53;;;5.40;;
45620;SDS011;31345;51.522;10.702;2023-03-09T05:39:35;13.23;;;6.77;;
45620;SDS011;31345;51.522;10.702;2023-03-09T05:42:08;10.30;;;6.37;;
45620;SDS011;31345;51.522;10.702;2023-03-09T05:44:38;9.00;;;5.67;;
45620;SDS011;31345;51.522;10.702;2023-03-09T05:47:12;12.00;;;6.33;;
45620;SDS011;31345;51.522;10.702;2023-03-09T05:49:47;13.30;;;6.80;;
45620;SDS011;31345;51.522;10.702;2023-03-09T05:52:20;14.83;;;7.87;;
45620;SDS011;31345;51.522;10.702;2023-03-09T05:54:53;13.80;;;7.60;;
45620;SDS011;31345;51.522;10.702;2023-03-09T05:57:26;14.53;;;7.87;;
45620;SDS011;31345;51.522;10.702;2023-03-09T05:59:55;14.63;;;8.10;;
45620;SDS011;31345;51.522;10.702;2023-03-09T06:02:28;15.90;;;8.20;;
45620;SDS011;31345;51.522;10.702;2023-03-09T06:05:01;14.37;;;7.83;;
45620;SDS011;31345;51.522;10.702;2023-03-09T06:07:34;15.73;;;8.80;;
45620;SDS011;31345;51.522;10.702;2023-03-09T06:10:02;16.07;;;8.67;;
45620;SDS011;31345;51.522;10.702;2023-03-09T06:12:35;14.20;;;8.13;;
45620;SDS011;31345;51.522;10.702;2023-03-09T06:15:08;14.77;;;8.70;;
45620;SDS011;31345;51.522;10.702;2023-03-09T06:17:45;15.23;;;8.23;;
45620;SDS011;31345;51.522;10.702;2023-03-09T06:20:22;17.00;;;9.10;;
45620;SDS011;31345;51.522;10.702;2023-03-09T06:23:01;14.63;;;8.07;;
45620;SDS011;31345;51.522;10.702;2023-03-09T06:25:29;14.80;;;7.80;;
45620;SDS011;31345;51.522;10.702;2023-03-09T06:28:03;14.33;;;8.00;;
45620;SDS011;31345;51.522;10.702;2023-03-09T06:30:39;15.20;;;8.33;;
45620;SDS011;31345;51.522;10.702;2023-03-09T06:33:15;14.83;;;8.73;;
45620;SDS011;31345;51.522;10.702;2023-03-09T06:35:48;25.30;;;13.07;;
45620;SDS011;31345;51.522;10.702;2023-03-09T06:38:22;27.23;;;15.47;;
45620;SDS011;31345;51.522;10.702;2023-03-09T06:40:56;19.33;;;10.23;;
45620;SDS011;31345;51.522;10.702;2023-03-09T06:43:30;18.37;;;9.50;;
45620;SDS011;31345;51.522;10.702;2023-03-09T06:46:02;17.33;;;8.97;;
45620;SDS011;31345;51.522;10.702;2023-03-09T06:48:37;12.57;;;7.67;;
45620;SDS011;31345;51.522;10.702;2023-03-09T06:51:10;14.87;;;7.53;;
45620;SDS011;31345;51.522;10.702;2023-03-09T06:53:42;15.17;;;9.03;;
45620;SDS011;31345;51.522;10.702;2023-03-09T06:56:18;16.53;;;8.47;;
45620;SDS011;31345;51.522;10.702;2023-03-09T06:58:45;15.67;;;8.50;;
45620;SDS011;31345;51.522;10.702;2023-03-09T07:01:21;13.07;;;7.37;;
45620;SDS011;31345;51.522;10.702;2023-03-09T07:03:56;13.67;;;7.50;;
45620;SDS011;31345;51.522;10.702;2023-03-09T07:06:28;13.83;;;7.47;;
45620;SDS011;31345;51.522;10.702;2023-03-09T07:09:01;15.17;;;7.63;;
45620;SDS011;31345;51.522;10.702;2023-03-09T07:11:34;12.17;;;6.07;;
45620;SDS011;31345;51.522;10.702;2023-03-09T07:14:07;10.80;;;5.67;;
45620;SDS011;31345;51.522;10.702;2023-03-09T07:16:40;8.63;;;4.43;;
45620;SDS011;31345;51.522;10.702;2023-03-09T07:19:08;7.70;;;4.60;;
45620;SDS011;31345;51.522;10.702;2023-03-09T07:21:41;6.40;;;4.10;;
45620;SDS011;31345;51.522;10.702;2023-03-09T07:24:08;6.43;;;4.17;;
45620;SDS011;31345;51.522;10.702;2023-03-09T07:26:41;6.90;;;4.13;;
45620;SDS011;31345;51.522;10.702;2023-03-09T07:29:09;6.73;;;3.80;;
45620;SDS011;31345;51.522;10.702;2023-03-09T07:31:36;8.67;;;4.10;;
45620;SDS011;31345;51.522;10.702;2023-03-09T07:34:04;8.00;;;4.60;;
45620;SDS011;31345;51.522;10.702;2023-03-09T07:36:38;8.23;;;4.13;;
45620;SDS011;31345;51.522;10.702;2023-03-09T07:39:11;8.27;;;4.77;;
45620;SDS011;31345;51.522;10.702;2023-03-09T07:41:43;7.47;;;4.03;;
45620;SDS011;31345;51.522;10.702;2023-03-09T07:44:11;9.93;;;4.93;;
45620;SDS011;31345;51.522;10.702;2023-03-09T07:46:43;6.07;;;3.60;;
45620;SDS011;31345;51.522;10.702;2023-03-09T07:49:16;7.63;;;4.20;;
45620;SDS011;31345;51.522;10.702;2023-03-09T07:51:50;5.17;;;3.27;;
45620;SDS011;31345;51.522;10.702;2023-03-09T07:54:23;6.20;;;4.10;;
45620;SDS011;31345;51.522;10.702;2023-03-09T07:56:56;7.07;;;3.73;;
45620;SDS011;31345;51.522;10.702;2023-03-09T07:59:28;8.53;;;3.60;;
45620;SDS011;31345;51.522;10.702;2023-03-09T08:02:01;6.57;;;3.30;;
45620;SDS011;31345;51.522;10.702;2023-03-09T08:04:37;6.23;;;3.60;;
45620;SDS011;31345;51.522;10.702;2023-03-09T08:07:11;5.97;;;3.57;;
45620;SDS011;31345;51.522;10.702;2023-03-09T08:09:39;4.13;;;2.70;;
45620;SDS011;31345;51.522;10.702;2023-03-09T08:12:12;3.97;;;2.37;;
45620;SDS011;31345;51.522;10.702;2023-03-09T08:14:39;4.73;;;2.83;;
45620;SDS011;31345;51.522;10.702;2023-03-09T08:17:07;5.00;;;2.90;;
45620;SDS011;31345;51.522;10.702;2023-03-09T08:19:40;5.20;;;3.43;;
45620;SDS011;31345;51.522;10.702;2023-03-09T08:22:14;4.33;;;2.70;;
45620;SDS011;31345;51.522;10.702;2023-03-09T08:24:47;4.60;;;2.90;;
45620;SDS011;31345;51.522;10.702;2023-03-09T08:27:21;3.53;;;2.37;;
45620;SDS011;31345;51.522;10.702;2023-03-09T08:29:54;3.43;;;2.20;;
45620;SDS011;31345;51.522;10.702;2023-03-09T08:32:26;3.57;;;2.20;;
45620;SDS011;31345;51.522;10.702;2023-03-09T08:34:55;3.33;;;2.23;;
45620;SDS011;31345;51.522;10.702;2023-03-09T08:37:29;4.77;;;2.70;;
45620;SDS011;31345;51.522;10.702;2023-03-09T08:39:56;3.70;;;2.20;;
45620;SDS011;31345;51.522;10.702;2023-03-09T08:42:29;5.30;;;2.93;;
45620;SDS011;31345;51.522;10.702;2023-03-09T08:44:58;4.53;;;2.90;;
45620;SDS011;31345;51.522;10.702;2023-03-09T08:47:30;6.07;;;3.80;;
45620;SDS011;31345;51.522;10.702;2023-03-09T08:50:04;6.80;;;4.33;;
45620;SDS011;31345;51.522;10.702;2023-03-09T08:52:33;7.47;;;3.77;;
45620;SDS011;31345;51.522;10.702;2023-03-09T08:55:04;7.80;;;4.47;;
45620;SDS011;31345;51.522;10.702;2023-03-09T08:57:38;8.60;;;5.50;;
45620;SDS011;31345;51.522;10.702;2023-03-09T09:00:06;6.73;;;4.40;;
45620;SDS011;31345;51.522;10.702;2023-03-09T09:02:41;6.00;;;4.03;;
45620;SDS011;31345;51.522;10.702;2023-03-09T09:05:13;7.17;;;3.87;;
45620;SDS011;31345;51.522;10.702;2023-03-09T09:07:47;3.23;;;2.10;;
45620;SDS011;31345;51.522;10.702;2023-03-09T09:10:21;3.83;;;2.20;;
45620;SDS011;31345;51.522;10.702;2023-03-09T09:12:48;3.53;;;2.10;;
45620;SDS011;31345;51.522;10.702;2023-03-09T09:15:21;3.60;;;2.17;;
45620;SDS011;31345;51.522;10.702;2023-03-09T09:17:54;4.20;;;2.20;;
45620;SDS011;31345;51.522;10.702;2023-03-09T09:20:26;2.93;;;1.80;;
45620;SDS011;31345;51.522;10.702;2023-03-09T09:23:00;3.20;;;2.13;;
45620;SDS011;31345;51.522;10.702;2023-03-09T09:25:28;3.40;;;2.37;;
45620;SDS011;31345;51.522;10.702;2023-03-09T09:28:00;4.83;;;2.57;;
45620;SDS011;31345;51.522;10.702;2023-03-09T09:30:33;3.10;;;2.00;;
45620;SDS011;31345;51.522;10.702;2023-03-09T09:33:02;4.73;;;3.10;;
45620;SDS011;31345;51.522;10.702;2023-03-09T09:35:35;6.43;;;3.90;;
45620;SDS011;31345;51.522;10.702;2023-03-09T09:38:09;6.13;;;3.87;;
45620;SDS011;31345;51.522;10.702;2023-03-09T09:40:42;6.60;;;4.27;;
45620;SDS011;31345;51.522;10.702;2023-03-09T09:43:15;8.73;;;5.87;;
45620;SDS011;31345;51.522;10.702;2023-03-09T09:45:48;9.40;;;6.03;;
45620;SDS011;31345;51.522;10.702;2023-03-09T09:48:23;9.77;;;5.37;;
45620;SDS011;31345;51.522;10.702;2023-03-09T09:51:01;8.77;;;5.50;;
45620;SDS011;31345;51.522;10.702;2023-03-09T09:53:49;9.50;;;5.43;;
45620;SDS011;31345;51.522;10.702;2023-03-09T09:56:33;8.60;;;5.60;;
45620;SDS011;31345;51.522;10.702;2023-03-09T09:59:15;9.00;;;6.17;;
45620;SDS011;31345;51.522;10.702;2023-03-09T10:01:52;10.37;;;5.80;;
45620;SDS011;31345;51.522;10.702;2023-03-09T10:04:31;9.40;;;5.87;;
45620;SDS011;31345;51.522;10.702;2023-03-09T10:07:10;7.33;;;4.77;;
45620;SDS011;31345;51.522;10.702;2023-03-09T10:09:49;9.03;;;5.70;;
45620;SDS011;31345;51.522;10.702;2023-03-09T10:12:26;9.77;;;5.77;;
45620;SDS011;31345;51.522;10.702;2023-03-09T10:15:00;8.57;;;5.50;;
45620;SDS011;31345;51.522;10.702;2023-03-09T10:17:38;8.40;;;6.00;;
45620;SDS011;31345;51.522;10.702;2023-03-09T10:20:16;9.87;;;6.00;;
45620;SDS011;31345;51.522;10.702;2023-03-09T10:22:48;13.13;;;7.73;;
45620;SDS011;31345;51.522;10.702;2023-03-09T10:25:20;9.67;;;5.63;;
45620;SDS011;31345;51.522;10.702;2023-03-09T10:27:50;10.23;;;6.32;;
45620;SDS011;31345;51.522;10.702;2023-03-09T10:30:27;12.30;;;7.10;;
45620;SDS011;31345;51.522;10.702;2023-03-09T10:33:03;10.77;;;7.10;;
45620;SDS011;31345;51.522;10.702;2023-03-09T10:35:43;12.47;;;7.70;;
45620;SDS011;31345;51.522;10.702;2023-03-09T10:38:20;10.00;;;6.73;;
45620;SDS011;31345;51.522;10.702;2023-03-09T10:40:56;10.70;;;7.17;;
45620;SDS011;31345;51.522;10.702;2023-03-09T10:43:30;10.67;;;6.80;;
45620;SDS011;31345;51.522;10.702;2023-03-09T10:46:07;15.03;;;8.97;;
45620;SDS011;31345;51.522;10.702;2023-03-09T10:48:44;13.35;;;9.38;;
45620;SDS011;31345;51.522;10.702;2023-03-09T10:51:20;13.30;;;8.90;;
45620;SDS011;31345;51.522;10.702;2023-03-09T10:53:56;11.30;;;7.20;;
45620;SDS011;31345;51.522;10.702;2023-03-09T10:56:47;11.10;;;7.07;;
45620;SDS011;31345;51.522;10.702;2023-03-09T10:59:20;14.00;;;7.97;;
45620;SDS011;31345;51.522;10.702;2023-03-09T11:01:54;11.17;;;7.40;;
45620;SDS011;31345;51.522;10.702;2023-03-09T11:04:27;28.43;;;21.70;;
45620;SDS011;31345;51.522;10.702;2023-03-09T11:06:57;16.97;;;12.50;;
45620;SDS011;31345;51.522;10.702;2023-03-09T11:09:33;13.47;;;9.83;;
45620;SDS011;31345;51.522;10.702;2023-03-09T11:12:16;13.13;;;8.97;;
45620;SDS011;31345;51.522;10.702;2023-03-09T11:14:51;11.00;;;7.87;;
45620;SDS011;31345;51.522;10.702;2023-03-09T11:20:18;14.38;;;8.63;;
45620;SDS011;31345;51.522;10.702;2023-03-09T11:22:51;13.63;;;8.40;;
45620;SDS011;31345;51.522;10.702;2023-03-09T11:28:33;13.53;;;8.90;;
45620;SDS011;31345;51.522;10.702;2023-03-09T11:31:13;15.67;;;9.23;;
45620;SDS011;31345;51.522;10.702;2023-03-09T11:33:43;13.38;;;8.57;;
45620;SDS011;31345;51.522;10.702;2023-03-09T11:36:19;13.37;;;7.63;;
45620;SDS011;31345;51.522;10.702;2023-03-09T11:38:56;17.00;;;10.20;;
45620;SDS011;31345;51.522;10.702;2023-03-09T11:41:29;19.27;;;11.37;;
45620;SDS011;31345;51.522;10.702;2023-03-09T11:44:02;18.80;;;10.80;;
45620;SDS011;31345;51.522;10.702;2023-03-09T11:46:42;15.87;;;10.27;;
45620;SDS011;31345;51.522;10.702;2023-03-09T11:49:15;17.13;;;11.07;;
45620;SDS011;31345;51.522;10.702;2023-03-09T11:51:45;16.07;;;10.63;;
45620;SDS011;31345;51.522;10.702;2023-03-09T11:54:18;15.15;;;10.27;;
45620;SDS011;31345;51.522;10.702;2023-03-09T11:56:50;15.90;;;11.53;;
45620;SDS011;31345;51.522;10.702;2023-03-09T11:59:28;15.83;;;10.93;;
45620;SDS011;31345;51.522;10.702;2023-03-09T12:02:07;19.57;;;10.73;;
45620;SDS011;31345;51.522;10.702;2023-03-09T12:04:44;14.23;;;9.63;;
45620;SDS011;31345;51.522;10.702;2023-03-09T12:07:20;17.07;;;10.67;;
45620;SDS011;31345;51.522;10.702;2023-03-09T12:09:58;15.63;;;10.47;;
45620;SDS011;31345;51.522;10.702;2023-03-09T12:12:38;14.73;;;9.85;;
45620;SDS011;31345;51.522;10.702;2023-03-09T12:15:13;15.13;;;9.37;;
45620;SDS011;31345;51.522;10.702;2023-03-09T12:17:46;15.10;;;10.07;;
45620;SDS011;31345;51.522;10.702;2023-03-09T12:20:20;14.67;;;10.00;;
45620;SDS011;31345;51.522;10.702;2023-03-09T12:22:57;16.83;;;10.70;;
45620;SDS011;31345;51.522;10.702;2023-03-09T12:25:30;18.63;;;10.57;;
45620;SDS011;31345;51.522;10.702;2023-03-09T12:27:58;15.60;;;9.87;;
45620;SDS011;31345;51.522;10.702;2023-03-09T12:30:30;13.18;;;9.30;;
45620;SDS011;31345;51.522;10.702;2023-03-09T12:32:59;17.45;;;10.65;;
45620;SDS011;31345;51.522;10.702;2023-03-09T12:38:30;42.87;;;33.30;;
45620;SDS011;31345;51.522;10.702;2023-03-09T12:40:58;17.47;;;11.80;;
45620;SDS011;31345;51.522;10.702;2023-03-09T12:43:32;19.27;;;10.90;;
45620;SDS011;31345;51.522;10.702;2023-03-09T12:49:33;21.03;;;12.97;;
45620;SDS011;31345;51.522;10.702;2023-03-09T12:52:27;31.13;;;25.47;;
45620;SDS011;31345;51.522;10.702;2023-03-09T12:55:13;19.20;;;13.63;;
45620;SDS011;31345;51.522;10.702;2023-03-09T12:57:42;16.07;;;11.97;;
45620;SDS011;31345;51.522;10.702;2023-03-09T13:00:24;25.93;;;21.37;;
45620;SDS011;31345;51.522;10.702;2023-03-09T13:03:04;24.33;;;18.73;;
45620;SDS011;31345;51.522;10.702;2023-03-09T13:05:45;16.23;;;11.63;;
45620;SDS011;31345;51.522;10.702;2023-03-09T13:08:20;15.53;;;11.00;;
45620;SDS011;31345;51.522;10.702;2023-03-09T13:13:58;16.00;;;10.77;;
45620;SDS011;31345;51.522;10.702;2023-03-09T13:22:26;14.97;;;9.57;;
45620;SDS011;31345;51.522;10.702;2023-03-09T13:25:16;15.90;;;9.03;;
45620;SDS011;31345;51.522;10.702;2023-03-09T13:28:00;14.33;;;10.47;;
45620;SDS011;31345;51.522;10.702;2023-03-09T13:30:55;70.17;;;54.70;;
45620;SDS011;31345;51.522;10.702;2023-03-09T13:33:31;19.40;;;13.13;;
45620;SDS011;31345;51.522;10.702;2023-03-09T13:36:12;18.70;;;11.23;;
45620;SDS011;31345;51.522;10.702;2023-03-09T13:38:46;20.27;;;13.73;;
45620;SDS011;31345;51.522;10.702;2023-03-09T13:41:22;17.23;;;11.30;;
45620;SDS011;31345;51.522;10.702;2023-03-09T13:43:53;17.30;;;12.73;;
45620;SDS011;31345;51.522;10.702;2023-03-09T13:48:59;15.83;;;10.47;;
45620;SDS011;31345;51.522;10.702;2023-03-09T13:51:39;15.40;;;10.77;;
45620;SDS011;31345;51.522;10.702;2023-03-09T13:54:20;13.20;;;10.27;;
45620;SDS011;31345;51.522;10.702;2023-03-09T13:57:01;16.37;;;10.67;;
45620;SDS011;31345;51.522;10.702;2023-03-09T13:59:42;16.43;;;10.77;;
45620;SDS011;31345;51.522;10.702;2023-03-09T14:02:24;14.70;;;10.47;;
45620;SDS011;31345;51.522;10.702;2023-03-09T14:05:04;15.27;;;10.30;;
45620;SDS011;31345;51.522;10.702;2023-03-09T14:07:36;15.00;;;10.20;;
45620;SDS011;31345;51.522;10.702;2023-03-09T14:10:21;16.07;;;10.40;;
45620;SDS011;31345;51.522;10.702;2023-03-09T14:12:57;17.85;;;11.60;;
45620;SDS011;31345;51.522;10.702;2023-03-09T14:15:33;15.67;;;10.67;;
45620;SDS011;31345;51.522;10.702;2023-03-09T14:18:13;16.27;;;10.07;;
45620;SDS011;31345;51.522;10.702;2023-03-09T14:20:51;15.10;;;10.37;;
45620;SDS011;31345;51.522;10.702;2023-03-09T14:23:34;14.67;;;9.67;;
45620;SDS011;31345;51.522;10.702;2023-03-09T14:26:05;15.70;;;10.47;;
45620;SDS011;31345;51.522;10.702;2023-03-09T14:28:35;15.63;;;10.17;;
45620;SDS011;31345;51.522;10.702;2023-03-09T14:31:12;16.77;;;11.23;;
45620;SDS011;31345;51.522;10.702;2023-03-09T14:33:59;15.67;;;10.23;;
45620;SDS011;31345;51.522;10.702;2023-03-09T14:36:35;15.10;;;9.57;;
45620;SDS011;31345;51.522;10.702;2023-03-09T14:39:21;16.07;;;9.60;;
45620;SDS011;31345;51.522;10.702;2023-03-09T14:42:01;14.47;;;9.77;;
45620;SDS011;31345;51.522;10.702;2023-03-09T14:44:36;16.58;;;9.45;;
45620;SDS011;31345;51.522;10.702;2023-03-09T14:47:11;15.90;;;9.97;;
45620;SDS011;31345;51.522;10.702;2023-03-09T14:49:46;15.80;;;10.43;;
45620;SDS011;31345;51.522;10.702;2023-03-09T14:52:21;15.37;;;10.03;;
45620;SDS011;31345;51.522;10.702;2023-03-09T14:54:56;19.60;;;11.80;;
45620;SDS011;31345;51.522;10.702;2023-03-09T14:57:26;19.48;;;11.70;;
45620;SDS011;31345;51.522;10.702;2023-03-09T14:59:59;18.57;;;11.13;;
45620;SDS011;31345;51.522;10.702;2023-03-09T15:02:32;17.03;;;10.90;;
45620;SDS011;31345;51.522;10.702;2023-03-09T15:05:05;19.07;;;11.47;;
45620;SDS011;31345;51.522;10.702;2023-03-09T15:07:45;16.83;;;10.13;;
45620;SDS011;31345;51.522;10.702;2023-03-09T15:10:19;16.10;;;10.53;;
45620;SDS011;31345;51.522;10.702;2023-03-09T15:12:52;14.90;;;9.93;;
45620;SDS011;31345;51.522;10.702;2023-03-09T15:15:25;20.43;;;12.10;;
45620;SDS011;31345;51.522;10.702;2023-03-09T15:17:59;17.47;;;10.97;;
45620;SDS011;31345;51.522;10.702;2023-03-09T15:20:31;14.87;;;9.93;;
45620;SDS011;31345;51.522;10.702;2023-03-09T15:22:59;15.00;;;10.10;;
45620;SDS011;31345;51.522;10.702;2023-03-09T15:25:33;19.07;;;10.93;;
45620;SDS011;31345;51.522;10.702;2023-03-09T15:28:05;18.77;;;10.33;;
45620;SDS011;31345;51.522;10.702;2023-03-09T15:30:33;21.63;;;11.20;;